Terminal Aerodrome Forecast
Issued by NWS Topeka, KS

Home | Current Version | Previous Version | Graphics & Text | Print | Product List | Glossary On
Versions: 1 2 3 4 5 6 7 8 9 10 11 12 13 14 15 16 17
187
FTUS43 KTOP 191515 AAB
TAFTOP
TAF AMD
KTOP 191515Z 1915/2012 14003KT 4SM BR SKC
     FM191600 16007KT 6SM BR FEW015
     FM191700 16010KT P6SM BKN015
     FM191900 17010KT P6SM BKN025
     FM200400 16008KT 5SM BR OVC015
     FM200800 16009KT 4SM BR VCSH OVC009=

USA.gov is the U.S. government's official web portal to all federal, state and local government web resources and services.